Birnin Kebbi, Nigeria
Current Conditions -  °F | °C
As of 9:00 AM on Friday 31 Oct 2014 (Local Time) from DRRN Reporting Station
Clear Clear  
Wind Chill: 90°   Ceiling: Unl
Heat Index: 90°   Visibility: 4mi
Dew Point: 55°   Wind: 0mph
Humidity: 31%   Direction: NA
Pressure: 29.88"   Gusts: NA
Location:  12.46°N, 4.19°E
Report Text: DRRN 310800Z 00000KT 6000 NSC 32/13 Q1012 NOSIG
Loading
Personal Weather Stations






























Interactive Weather Map
Tropical Storm Tracking
New forecast layout! Learn more

10-Day Weather Forecast

Advertisements
Track Severe Weather on mobile